<?xml version="1.0" encoding="UTF-8" standalone="no" ?>
<gpx xmlns="http://www.topografix.com/GPX/1/1" xmlns:xsi="http://www.w3.org/2001/XMLSchema-instance" xsi:schemaLocation="http://www.topografix.com/GPX/1/1 http://www.topografix.com/GPX/1/1/gpx.xsd" version="1.1" creator="VisuGPX - https://www.visugpx.com">
  <metadata>
    <name>25-D-Besançon</name>
    <desc><![CDATA[25-D-Besançon : Brégille - les Ragots]]></desc>
  </metadata>
  <trk>
    <name><![CDATA[2019-06-06-Besancon-Ragots]]></name>
    <trkseg>
      <trkpt lat="47.23471" lon="6.04212">
        <ele>423.6</ele>
        <time>2019-06-06T07:16:36Z</time>
      </trkpt>
      <trkpt lat="47.23469" lon="6.04226">
        <ele>424.3</ele>
        <time>2019-06-06T07:16:50Z</time>
      </trkpt>
      <trkpt lat="47.23462" lon="6.04235">
        <ele>424.2</ele>
        <time>2019-06-06T07:17:27Z</time>
      </trkpt>
      <trkpt lat="47.23453" lon="6.04238">
        <ele>423.9</ele>
        <time>2019-06-06T07:17:37Z</time>
      </trkpt>
      <trkpt lat="47.23444" lon="6.04241">
        <ele>423.8</ele>
        <time>2019-06-06T07:17:46Z</time>
      </trkpt>
      <trkpt lat="47.23435" lon="6.04248">
        <ele>423.5</ele>
        <time>2019-06-06T07:17:56Z</time>
      </trkpt>
      <trkpt lat="47.23434" lon="6.04261">
        <ele>423.2</ele>
        <time>2019-06-06T07:18:05Z</time>
      </trkpt>
      <trkpt lat="47.23433" lon="6.04276">
        <ele>422.9</ele>
        <time>2019-06-06T07:18:13Z</time>
      </trkpt>
      <trkpt lat="47.23433" lon="6.0429">
        <ele>422.7</ele>
        <time>2019-06-06T07:18:21Z</time>
      </trkpt>
      <trkpt lat="47.23433" lon="6.04305">
        <ele>422.8</ele>
        <time>2019-06-06T07:18:31Z</time>
      </trkpt>
      <trkpt lat="47.23434" lon="6.04318">
        <ele>423.2</ele>
        <time>2019-06-06T07:18:41Z</time>
      </trkpt>
      <trkpt lat="47.23437" lon="6.04332">
        <ele>423.7</ele>
        <time>2019-06-06T07:18:54Z</time>
      </trkpt>
      <trkpt lat="47.23436" lon="6.04346">
        <ele>424.4</ele>
        <time>2019-06-06T07:19:08Z</time>
      </trkpt>
      <trkpt lat="47.23438" lon="6.04359">
        <ele>424.2</ele>
        <time>2019-06-06T07:19:21Z</time>
      </trkpt>
      <trkpt lat="47.23439" lon="6.04373">
        <ele>424</ele>
        <time>2019-06-06T07:19:29Z</time>
      </trkpt>
      <trkpt lat="47.23436" lon="6.04387">
        <ele>423.8</ele>
        <time>2019-06-06T07:19:36Z</time>
      </trkpt>
      <trkpt lat="47.23431" lon="6.04399">
        <ele>422.9</ele>
        <time>2019-06-06T07:19:45Z</time>
      </trkpt>
      <trkpt lat="47.23428" lon="6.04412">
        <ele>422.7</ele>
        <time>2019-06-06T07:19:52Z</time>
      </trkpt>
      <trkpt lat="47.23426" lon="6.04426">
        <ele>422.3</ele>
        <time>2019-06-06T07:19:59Z</time>
      </trkpt>
      <trkpt lat="47.23423" lon="6.04439">
        <ele>422</ele>
        <time>2019-06-06T07:20:07Z</time>
      </trkpt>
      <trkpt lat="47.23415" lon="6.04446">
        <ele>422.4</ele>
        <time>2019-06-06T07:20:15Z</time>
      </trkpt>
      <trkpt lat="47.2341" lon="6.04458">
        <ele>422</ele>
        <time>2019-06-06T07:20:29Z</time>
      </trkpt>
      <trkpt lat="47.23414" lon="6.04471">
        <ele>424.7</ele>
        <time>2019-06-06T07:22:45Z</time>
      </trkpt>
      <trkpt lat="47.23418" lon="6.04484">
        <ele>425.5</ele>
        <time>2019-06-06T07:22:55Z</time>
      </trkpt>
      <trkpt lat="47.23422" lon="6.04497">
        <ele>426.4</ele>
        <time>2019-06-06T07:23:04Z</time>
      </trkpt>
      <trkpt lat="47.23428" lon="6.04506">
        <ele>427.6</ele>
        <time>2019-06-06T07:23:13Z</time>
      </trkpt>
      <trkpt lat="47.23436" lon="6.04513">
        <ele>429.7</ele>
        <time>2019-06-06T07:23:25Z</time>
      </trkpt>
      <trkpt lat="47.23435" lon="6.04527">
        <ele>431.1</ele>
        <time>2019-06-06T07:23:39Z</time>
      </trkpt>
      <trkpt lat="47.23435" lon="6.04541">
        <ele>430.9</ele>
        <time>2019-06-06T07:23:48Z</time>
      </trkpt>
      <trkpt lat="47.23438" lon="6.04555">
        <ele>430.9</ele>
        <time>2019-06-06T07:23:57Z</time>
      </trkpt>
      <trkpt lat="47.23439" lon="6.04569">
        <ele>431</ele>
        <time>2019-06-06T07:24:04Z</time>
      </trkpt>
      <trkpt lat="47.23446" lon="6.04579">
        <ele>432.2</ele>
        <time>2019-06-06T07:24:19Z</time>
      </trkpt>
      <trkpt lat="47.23452" lon="6.0459">
        <ele>434</ele>
        <time>2019-06-06T07:24:35Z</time>
      </trkpt>
      <trkpt lat="47.23455" lon="6.04602">
        <ele>434.6</ele>
        <time>2019-06-06T07:24:46Z</time>
      </trkpt>
      <trkpt lat="47.23456" lon="6.04616">
        <ele>435.4</ele>
        <time>2019-06-06T07:25:38Z</time>
      </trkpt>
      <trkpt lat="47.23458" lon="6.0463">
        <ele>435.1</ele>
        <time>2019-06-06T07:25:47Z</time>
      </trkpt>
      <trkpt lat="47.23456" lon="6.04644">
        <ele>433.9</ele>
        <time>2019-06-06T07:26:00Z</time>
      </trkpt>
      <trkpt lat="47.23458" lon="6.04657">
        <ele>433.5</ele>
        <time>2019-06-06T07:26:07Z</time>
      </trkpt>
      <trkpt lat="47.23461" lon="6.0467">
        <ele>433.1</ele>
        <time>2019-06-06T07:26:18Z</time>
      </trkpt>
      <trkpt lat="47.23463" lon="6.04684">
        <ele>432.4</ele>
        <time>2019-06-06T07:26:29Z</time>
      </trkpt>
      <trkpt lat="47.23458" lon="6.04696">
        <ele>431.5</ele>
        <time>2019-06-06T07:26:37Z</time>
      </trkpt>
      <trkpt lat="47.23459" lon="6.04711">
        <ele>430.5</ele>
        <time>2019-06-06T07:26:46Z</time>
      </trkpt>
      <trkpt lat="47.23463" lon="6.04725">
        <ele>430</ele>
        <time>2019-06-06T07:26:52Z</time>
      </trkpt>
      <trkpt lat="47.23463" lon="6.0474">
        <ele>428.4</ele>
        <time>2019-06-06T07:27:02Z</time>
      </trkpt>
      <trkpt lat="47.2346" lon="6.04753">
        <ele>427.7</ele>
        <time>2019-06-06T07:27:11Z</time>
      </trkpt>
      <trkpt lat="47.23462" lon="6.04766">
        <ele>425.3</ele>
        <time>2019-06-06T07:27:32Z</time>
      </trkpt>
      <trkpt lat="47.23469" lon="6.04776">
        <ele>424.9</ele>
        <time>2019-06-06T07:30:31Z</time>
      </trkpt>
      <trkpt lat="47.23476" lon="6.04786">
        <ele>424.2</ele>
        <time>2019-06-06T07:30:44Z</time>
      </trkpt>
      <trkpt lat="47.23481" lon="6.04798">
        <ele>423.6</ele>
        <time>2019-06-06T07:30:51Z</time>
      </trkpt>
      <trkpt lat="47.23488" lon="6.04806">
        <ele>422.2</ele>
        <time>2019-06-06T07:31:00Z</time>
      </trkpt>
      <trkpt lat="47.23495" lon="6.04814">
        <ele>421.1</ele>
        <time>2019-06-06T07:31:08Z</time>
      </trkpt>
      <trkpt lat="47.235" lon="6.04826">
        <ele>420.3</ele>
        <time>2019-06-06T07:31:16Z</time>
      </trkpt>
      <trkpt lat="47.23503" lon="6.04839">
        <ele>419.4</ele>
        <time>2019-06-06T07:31:24Z</time>
      </trkpt>
      <trkpt lat="47.23505" lon="6.04853">
        <ele>418.5</ele>
        <time>2019-06-06T07:31:35Z</time>
      </trkpt>
      <trkpt lat="47.23495" lon="6.04858">
        <ele>414.8</ele>
        <time>2019-06-06T07:32:32Z</time>
      </trkpt>
      <trkpt lat="47.23486" lon="6.04859">
        <ele>413.6</ele>
        <time>2019-06-06T07:32:40Z</time>
      </trkpt>
      <trkpt lat="47.23477" lon="6.04853">
        <ele>412.9</ele>
        <time>2019-06-06T07:32:47Z</time>
      </trkpt>
      <trkpt lat="47.23468" lon="6.04847">
        <ele>411.6</ele>
        <time>2019-06-06T07:32:58Z</time>
      </trkpt>
      <trkpt lat="47.23458" lon="6.04844">
        <ele>410.9</ele>
        <time>2019-06-06T07:33:03Z</time>
      </trkpt>
      <trkpt lat="47.23447" lon="6.04842">
        <ele>408.7</ele>
        <time>2019-06-06T07:33:16Z</time>
      </trkpt>
      <trkpt lat="47.23438" lon="6.04844">
        <ele>407.2</ele>
        <time>2019-06-06T07:33:25Z</time>
      </trkpt>
      <trkpt lat="47.23428" lon="6.04849">
        <ele>405.6</ele>
        <time>2019-06-06T07:33:34Z</time>
      </trkpt>
      <trkpt lat="47.23421" lon="6.04857">
        <ele>404.4</ele>
        <time>2019-06-06T07:33:41Z</time>
      </trkpt>
      <trkpt lat="47.23418" lon="6.0487">
        <ele>403.3</ele>
        <time>2019-06-06T07:33:48Z</time>
      </trkpt>
      <trkpt lat="47.23415" lon="6.04884">
        <ele>402.3</ele>
        <time>2019-06-06T07:33:59Z</time>
      </trkpt>
      <trkpt lat="47.23412" lon="6.04897">
        <ele>401.8</ele>
        <time>2019-06-06T07:34:05Z</time>
      </trkpt>
      <trkpt lat="47.2341" lon="6.0491">
        <ele>401.3</ele>
        <time>2019-06-06T07:34:12Z</time>
      </trkpt>
      <trkpt lat="47.23409" lon="6.04924">
        <ele>400.8</ele>
        <time>2019-06-06T07:34:21Z</time>
      </trkpt>
      <trkpt lat="47.2341" lon="6.04938">
        <ele>400.4</ele>
        <time>2019-06-06T07:34:30Z</time>
      </trkpt>
      <trkpt lat="47.23412" lon="6.04951">
        <ele>399.9</ele>
        <time>2019-06-06T07:34:38Z</time>
      </trkpt>
      <trkpt lat="47.23412" lon="6.04965">
        <ele>399.5</ele>
        <time>2019-06-06T07:34:45Z</time>
      </trkpt>
      <trkpt lat="47.23411" lon="6.04979">
        <ele>398.5</ele>
        <time>2019-06-06T07:34:53Z</time>
      </trkpt>
      <trkpt lat="47.23408" lon="6.04992">
        <ele>397.3</ele>
        <time>2019-06-06T07:35:01Z</time>
      </trkpt>
      <trkpt lat="47.23404" lon="6.05005">
        <ele>395.7</ele>
        <time>2019-06-06T07:35:10Z</time>
      </trkpt>
      <trkpt lat="47.23396" lon="6.05014">
        <ele>394.4</ele>
        <time>2019-06-06T07:35:17Z</time>
      </trkpt>
      <trkpt lat="47.23393" lon="6.05027">
        <ele>393</ele>
        <time>2019-06-06T07:35:25Z</time>
      </trkpt>
      <trkpt lat="47.23396" lon="6.0504">
        <ele>391.8</ele>
        <time>2019-06-06T07:35:34Z</time>
      </trkpt>
      <trkpt lat="47.23398" lon="6.05055">
        <ele>391.2</ele>
        <time>2019-06-06T07:35:42Z</time>
      </trkpt>
      <trkpt lat="47.23403" lon="6.05067">
        <ele>390.8</ele>
        <time>2019-06-06T07:35:50Z</time>
      </trkpt>
      <trkpt lat="47.23409" lon="6.05079">
        <ele>390.4</ele>
        <time>2019-06-06T07:35:59Z</time>
      </trkpt>
      <trkpt lat="47.23401" lon="6.05071">
        <ele>388.7</ele>
        <time>2019-06-06T07:36:37Z</time>
      </trkpt>
      <trkpt lat="47.23397" lon="6.05059">
        <ele>388.2</ele>
        <time>2019-06-06T07:36:45Z</time>
      </trkpt>
      <trkpt lat="47.23391" lon="6.05046">
        <ele>387.5</ele>
        <time>2019-06-06T07:36:53Z</time>
      </trkpt>
      <trkpt lat="47.23385" lon="6.05036">
        <ele>386.8</ele>
        <time>2019-06-06T07:37:01Z</time>
      </trkpt>
      <trkpt lat="47.23382" lon="6.05023">
        <ele>386.1</ele>
        <time>2019-06-06T07:37:10Z</time>
      </trkpt>
      <trkpt lat="47.23374" lon="6.05013">
        <ele>385.4</ele>
        <time>2019-06-06T07:37:18Z</time>
      </trkpt>
      <trkpt lat="47.23366" lon="6.05004">
        <ele>384.2</ele>
        <time>2019-06-06T07:37:28Z</time>
      </trkpt>
      <trkpt lat="47.23357" lon="6.05003">
        <ele>383.2</ele>
        <time>2019-06-06T07:37:36Z</time>
      </trkpt>
      <trkpt lat="47.23347" lon="6.05">
        <ele>381.9</ele>
        <time>2019-06-06T07:37:44Z</time>
      </trkpt>
      <trkpt lat="47.23338" lon="6.04998">
        <ele>380.3</ele>
        <time>2019-06-06T07:37:53Z</time>
      </trkpt>
      <trkpt lat="47.23329" lon="6.04997">
        <ele>378.8</ele>
        <time>2019-06-06T07:38:01Z</time>
      </trkpt>
      <trkpt lat="47.23324" lon="6.04984">
        <ele>376.5</ele>
        <time>2019-06-06T07:38:12Z</time>
      </trkpt>
      <trkpt lat="47.23324" lon="6.04971">
        <ele>375</ele>
        <time>2019-06-06T07:38:20Z</time>
      </trkpt>
      <trkpt lat="47.23326" lon="6.04957">
        <ele>373.6</ele>
        <time>2019-06-06T07:38:27Z</time>
      </trkpt>
      <trkpt lat="47.23329" lon="6.04943">
        <ele>372.3</ele>
        <time>2019-06-06T07:38:35Z</time>
      </trkpt>
      <trkpt lat="47.23332" lon="6.04929">
        <ele>371.1</ele>
        <time>2019-06-06T07:38:44Z</time>
      </trkpt>
      <trkpt lat="47.23332" lon="6.04915">
        <ele>369.9</ele>
        <time>2019-06-06T07:38:53Z</time>
      </trkpt>
      <trkpt lat="47.23331" lon="6.04902">
        <ele>368.3</ele>
        <time>2019-06-06T07:39:02Z</time>
      </trkpt>
      <trkpt lat="47.23333" lon="6.04888">
        <ele>367.6</ele>
        <time>2019-06-06T07:39:09Z</time>
      </trkpt>
      <trkpt lat="47.23333" lon="6.04875">
        <ele>366.2</ele>
        <time>2019-06-06T07:39:18Z</time>
      </trkpt>
      <trkpt lat="47.23324" lon="6.04877">
        <ele>363.8</ele>
        <time>2019-06-06T07:39:30Z</time>
      </trkpt>
      <trkpt lat="47.23317" lon="6.04887">
        <ele>362.2</ele>
        <time>2019-06-06T07:39:39Z</time>
      </trkpt>
      <trkpt lat="47.2331" lon="6.04898">
        <ele>361.3</ele>
        <time>2019-06-06T07:39:47Z</time>
      </trkpt>
      <trkpt lat="47.23302" lon="6.04906">
        <ele>360.7</ele>
        <time>2019-06-06T07:39:56Z</time>
      </trkpt>
      <trkpt lat="47.23299" lon="6.04919">
        <ele>360.1</ele>
        <time>2019-06-06T07:40:08Z</time>
      </trkpt>
      <trkpt lat="47.23292" lon="6.04928">
        <ele>359.6</ele>
        <time>2019-06-06T07:40:16Z</time>
      </trkpt>
      <trkpt lat="47.23286" lon="6.04939">
        <ele>358.4</ele>
        <time>2019-06-06T07:40:37Z</time>
      </trkpt>
      <trkpt lat="47.23278" lon="6.04948">
        <ele>357.8</ele>
        <time>2019-06-06T07:40:44Z</time>
      </trkpt>
      <trkpt lat="47.23272" lon="6.04958">
        <ele>357.3</ele>
        <time>2019-06-06T07:40:52Z</time>
      </trkpt>
      <trkpt lat="47.23265" lon="6.04968">
        <ele>357.2</ele>
        <time>2019-06-06T07:41:00Z</time>
      </trkpt>
      <trkpt lat="47.23258" lon="6.04976">
        <ele>357.1</ele>
        <time>2019-06-06T07:41:08Z</time>
      </trkpt>
      <trkpt lat="47.2325" lon="6.04984">
        <ele>357</ele>
        <time>2019-06-06T07:41:19Z</time>
      </trkpt>
      <trkpt lat="47.23242" lon="6.04993">
        <ele>356.8</ele>
        <time>2019-06-06T07:41:27Z</time>
      </trkpt>
      <trkpt lat="47.23234" lon="6.04999">
        <ele>357</ele>
        <time>2019-06-06T07:42:26Z</time>
      </trkpt>
      <trkpt lat="47.23224" lon="6.04994">
        <ele>356.7</ele>
        <time>2019-06-06T07:42:54Z</time>
      </trkpt>
      <trkpt lat="47.23216" lon="6.04987">
        <ele>356.6</ele>
        <time>2019-06-06T07:43:02Z</time>
      </trkpt>
      <trkpt lat="47.2321" lon="6.04976">
        <ele>356.4</ele>
        <time>2019-06-06T07:43:10Z</time>
      </trkpt>
      <trkpt lat="47.23205" lon="6.04963">
        <ele>356.3</ele>
        <time>2019-06-06T07:43:18Z</time>
      </trkpt>
      <trkpt lat="47.232" lon="6.04952">
        <ele>356</ele>
        <time>2019-06-06T07:43:25Z</time>
      </trkpt>
      <trkpt lat="47.23192" lon="6.04941">
        <ele>355.8</ele>
        <time>2019-06-06T07:43:33Z</time>
      </trkpt>
      <trkpt lat="47.23186" lon="6.04932">
        <ele>355.3</ele>
        <time>2019-06-06T07:43:40Z</time>
      </trkpt>
      <trkpt lat="47.23178" lon="6.04925">
        <ele>354</ele>
        <time>2019-06-06T07:44:26Z</time>
      </trkpt>
      <trkpt lat="47.23176" lon="6.04912">
        <ele>353</ele>
        <time>2019-06-06T07:44:37Z</time>
      </trkpt>
      <trkpt lat="47.23171" lon="6.04899">
        <ele>351.6</ele>
        <time>2019-06-06T07:44:46Z</time>
      </trkpt>
      <trkpt lat="47.23169" lon="6.04885">
        <ele>350.1</ele>
        <time>2019-06-06T07:44:54Z</time>
      </trkpt>
      <trkpt lat="47.23167" lon="6.04871">
        <ele>348</ele>
        <time>2019-06-06T07:45:05Z</time>
      </trkpt>
      <trkpt lat="47.23163" lon="6.04857">
        <ele>345</ele>
        <time>2019-06-06T07:45:19Z</time>
      </trkpt>
      <trkpt lat="47.2316" lon="6.04844">
        <ele>341</ele>
        <time>2019-06-06T07:45:37Z</time>
      </trkpt>
      <trkpt lat="47.23157" lon="6.04831">
        <ele>337.8</ele>
        <time>2019-06-06T07:45:51Z</time>
      </trkpt>
      <trkpt lat="47.23156" lon="6.04817">
        <ele>334.9</ele>
        <time>2019-06-06T07:46:03Z</time>
      </trkpt>
      <trkpt lat="47.23153" lon="6.04805">
        <ele>331.7</ele>
        <time>2019-06-06T07:46:17Z</time>
      </trkpt>
      <trkpt lat="47.23151" lon="6.04792">
        <ele>327</ele>
        <time>2019-06-06T07:46:37Z</time>
      </trkpt>
      <trkpt lat="47.23161" lon="6.04792">
        <ele>324.3</ele>
        <time>2019-06-06T07:46:49Z</time>
      </trkpt>
      <trkpt lat="47.23161" lon="6.04779">
        <ele>321.3</ele>
        <time>2019-06-06T07:48:31Z</time>
      </trkpt>
      <trkpt lat="47.2317" lon="6.04786">
        <ele>320</ele>
        <time>2019-06-06T07:49:40Z</time>
      </trkpt>
      <trkpt lat="47.23161" lon="6.04786">
        <ele>320.1</ele>
        <time>2019-06-06T07:50:15Z</time>
      </trkpt>
      <trkpt lat="47.23152" lon="6.04784">
        <ele>319.6</ele>
        <time>2019-06-06T07:50:49Z</time>
      </trkpt>
      <trkpt lat="47.23149" lon="6.0477">
        <ele>318.9</ele>
        <time>2019-06-06T07:51:02Z</time>
      </trkpt>
      <trkpt lat="47.23145" lon="6.04758">
        <ele>317.8</ele>
        <time>2019-06-06T07:51:11Z</time>
      </trkpt>
      <trkpt lat="47.2314" lon="6.04745">
        <ele>316.7</ele>
        <time>2019-06-06T07:51:19Z</time>
      </trkpt>
      <trkpt lat="47.23135" lon="6.04734">
        <ele>315.2</ele>
        <time>2019-06-06T07:51:27Z</time>
      </trkpt>
      <trkpt lat="47.2313" lon="6.04722">
        <ele>313.6</ele>
        <time>2019-06-06T07:51:35Z</time>
      </trkpt>
      <trkpt lat="47.23126" lon="6.0471">
        <ele>311.8</ele>
        <time>2019-06-06T07:51:43Z</time>
      </trkpt>
      <trkpt lat="47.23122" lon="6.04698">
        <ele>309.9</ele>
        <time>2019-06-06T07:51:52Z</time>
      </trkpt>
      <trkpt lat="47.23117" lon="6.04686">
        <ele>308</ele>
        <time>2019-06-06T07:52:01Z</time>
      </trkpt>
      <trkpt lat="47.23112" lon="6.04674">
        <ele>306.3</ele>
        <time>2019-06-06T07:52:09Z</time>
      </trkpt>
      <trkpt lat="47.23106" lon="6.04662">
        <ele>304.4</ele>
        <time>2019-06-06T07:52:18Z</time>
      </trkpt>
      <trkpt lat="47.23099" lon="6.04654">
        <ele>303</ele>
        <time>2019-06-06T07:52:27Z</time>
      </trkpt>
      <trkpt lat="47.23095" lon="6.04642">
        <ele>301.7</ele>
        <time>2019-06-06T07:52:35Z</time>
      </trkpt>
      <trkpt lat="47.23089" lon="6.04631">
        <ele>300.3</ele>
        <time>2019-06-06T07:52:42Z</time>
      </trkpt>
      <trkpt lat="47.23084" lon="6.04618">
        <ele>298.4</ele>
        <time>2019-06-06T07:52:50Z</time>
      </trkpt>
      <trkpt lat="47.23082" lon="6.04605">
        <ele>296.5</ele>
        <time>2019-06-06T07:53:00Z</time>
      </trkpt>
      <trkpt lat="47.23076" lon="6.04595">
        <ele>294.3</ele>
        <time>2019-06-06T07:53:09Z</time>
      </trkpt>
      <trkpt lat="47.23071" lon="6.04583">
        <ele>291.9</ele>
        <time>2019-06-06T07:53:19Z</time>
      </trkpt>
      <trkpt lat="47.23067" lon="6.04571">
        <ele>289.9</ele>
        <time>2019-06-06T07:53:27Z</time>
      </trkpt>
      <trkpt lat="47.23062" lon="6.04557">
        <ele>287.7</ele>
        <time>2019-06-06T07:53:36Z</time>
      </trkpt>
      <trkpt lat="47.23058" lon="6.04544">
        <ele>285.8</ele>
        <time>2019-06-06T07:53:44Z</time>
      </trkpt>
      <trkpt lat="47.23053" lon="6.04531">
        <ele>284.1</ele>
        <time>2019-06-06T07:53:52Z</time>
      </trkpt>
      <trkpt lat="47.23049" lon="6.0452">
        <ele>281.5</ele>
        <time>2019-06-06T07:54:03Z</time>
      </trkpt>
      <trkpt lat="47.23043" lon="6.04509">
        <ele>279.6</ele>
        <time>2019-06-06T07:54:15Z</time>
      </trkpt>
      <trkpt lat="47.2304" lon="6.04496">
        <ele>278.4</ele>
        <time>2019-06-06T07:54:23Z</time>
      </trkpt>
      <trkpt lat="47.23032" lon="6.04487">
        <ele>277.3</ele>
        <time>2019-06-06T07:54:30Z</time>
      </trkpt>
      <trkpt lat="47.23026" lon="6.04475">
        <ele>276.1</ele>
        <time>2019-06-06T07:54:38Z</time>
      </trkpt>
      <trkpt lat="47.23023" lon="6.04462">
        <ele>274.2</ele>
        <time>2019-06-06T07:54:47Z</time>
      </trkpt>
      <trkpt lat="47.23023" lon="6.04447">
        <ele>272.2</ele>
        <time>2019-06-06T07:54:59Z</time>
      </trkpt>
      <trkpt lat="47.23016" lon="6.04437">
        <ele>271.4</ele>
        <time>2019-06-06T07:55:05Z</time>
      </trkpt>
      <trkpt lat="47.23008" lon="6.04426">
        <ele>270.3</ele>
        <time>2019-06-06T07:55:13Z</time>
      </trkpt>
      <trkpt lat="47.23001" lon="6.04416">
        <ele>269</ele>
        <time>2019-06-06T07:55:21Z</time>
      </trkpt>
      <trkpt lat="47.22995" lon="6.04406">
        <ele>267.6</ele>
        <time>2019-06-06T07:55:29Z</time>
      </trkpt>
      <trkpt lat="47.22988" lon="6.04396">
        <ele>266.2</ele>
        <time>2019-06-06T07:55:37Z</time>
      </trkpt>
      <trkpt lat="47.22984" lon="6.04384">
        <ele>265</ele>
        <time>2019-06-06T07:55:45Z</time>
      </trkpt>
      <trkpt lat="47.22981" lon="6.04371">
        <ele>264.1</ele>
        <time>2019-06-06T07:55:53Z</time>
      </trkpt>
      <trkpt lat="47.22977" lon="6.04358">
        <ele>263</ele>
        <time>2019-06-06T07:56:01Z</time>
      </trkpt>
      <trkpt lat="47.22969" lon="6.0435">
        <ele>261.9</ele>
        <time>2019-06-06T07:56:10Z</time>
      </trkpt>
      <trkpt lat="47.2296" lon="6.04344">
        <ele>261.1</ele>
        <time>2019-06-06T07:56:17Z</time>
      </trkpt>
      <trkpt lat="47.22951" lon="6.04337">
        <ele>260.1</ele>
        <time>2019-06-06T07:56:25Z</time>
      </trkpt>
      <trkpt lat="47.22944" lon="6.04327">
        <ele>259</ele>
        <time>2019-06-06T07:56:34Z</time>
      </trkpt>
      <trkpt lat="47.22936" lon="6.04318">
        <ele>258</ele>
        <time>2019-06-06T07:56:43Z</time>
      </trkpt>
      <trkpt lat="47.22929" lon="6.0431">
        <ele>256.9</ele>
        <time>2019-06-06T07:56:51Z</time>
      </trkpt>
      <trkpt lat="47.22921" lon="6.04303">
        <ele>255.8</ele>
        <time>2019-06-06T07:56:58Z</time>
      </trkpt>
      <trkpt lat="47.22913" lon="6.04294">
        <ele>254.8</ele>
        <time>2019-06-06T07:57:06Z</time>
      </trkpt>
      <trkpt lat="47.22905" lon="6.04286">
        <ele>253.4</ele>
        <time>2019-06-06T07:57:15Z</time>
      </trkpt>
      <trkpt lat="47.22896" lon="6.04281">
        <ele>250.3</ele>
        <time>2019-06-06T07:58:27Z</time>
      </trkpt>
      <trkpt lat="47.22905" lon="6.04275">
        <ele>250.2</ele>
        <time>2019-06-06T08:00:13Z</time>
      </trkpt>
      <trkpt lat="47.2291" lon="6.04264">
        <ele>250.2</ele>
        <time>2019-06-06T08:00:25Z</time>
      </trkpt>
      <trkpt lat="47.22917" lon="6.04252">
        <ele>249.7</ele>
        <time>2019-06-06T08:00:35Z</time>
      </trkpt>
      <trkpt lat="47.22922" lon="6.04241">
        <ele>249.3</ele>
        <time>2019-06-06T08:00:42Z</time>
      </trkpt>
      <trkpt lat="47.22929" lon="6.0423">
        <ele>248.7</ele>
        <time>2019-06-06T08:00:50Z</time>
      </trkpt>
      <trkpt lat="47.22931" lon="6.04217">
        <ele>248.3</ele>
        <time>2019-06-06T08:00:58Z</time>
      </trkpt>
      <trkpt lat="47.22925" lon="6.04206">
        <ele>247.4</ele>
        <time>2019-06-06T08:01:09Z</time>
      </trkpt>
      <trkpt lat="47.22917" lon="6.04212">
        <ele>246.4</ele>
        <time>2019-06-06T08:01:18Z</time>
      </trkpt>
      <trkpt lat="47.2291" lon="6.04203">
        <ele>245</ele>
        <time>2019-06-06T08:01:29Z</time>
      </trkpt>
      <trkpt lat="47.22904" lon="6.04192">
        <ele>243.4</ele>
        <time>2019-06-06T08:02:10Z</time>
      </trkpt>
      <trkpt lat="47.22902" lon="6.04178">
        <ele>243.2</ele>
        <time>2019-06-06T08:02:29Z</time>
      </trkpt>
      <trkpt lat="47.22897" lon="6.04167">
        <ele>243</ele>
        <time>2019-06-06T08:02:38Z</time>
      </trkpt>
      <trkpt lat="47.22891" lon="6.04156">
        <ele>242.2</ele>
        <time>2019-06-06T08:02:52Z</time>
      </trkpt>
      <trkpt lat="47.22883" lon="6.04149">
        <ele>242.2</ele>
        <time>2019-06-06T08:03:02Z</time>
      </trkpt>
      <trkpt lat="47.22877" lon="6.04137">
        <ele>242.2</ele>
        <time>2019-06-06T08:03:12Z</time>
      </trkpt>
      <trkpt lat="47.22874" lon="6.04125">
        <ele>242.2</ele>
        <time>2019-06-06T08:03:21Z</time>
      </trkpt>
      <trkpt lat="47.22872" lon="6.0411">
        <ele>242.1</ele>
        <time>2019-06-06T08:03:28Z</time>
      </trkpt>
      <trkpt lat="47.22874" lon="6.04096">
        <ele>242</ele>
        <time>2019-06-06T08:03:35Z</time>
      </trkpt>
      <trkpt lat="47.22868" lon="6.04086">
        <ele>242</ele>
        <time>2019-06-06T08:03:42Z</time>
      </trkpt>
      <trkpt lat="47.22869" lon="6.04073">
        <ele>241.9</ele>
        <time>2019-06-06T08:03:49Z</time>
      </trkpt>
      <trkpt lat="47.22861" lon="6.04064">
        <ele>241.9</ele>
        <time>2019-06-06T08:03:58Z</time>
      </trkpt>
      <trkpt lat="47.22856" lon="6.04053">
        <ele>242.2</ele>
        <time>2019-06-06T08:04:06Z</time>
      </trkpt>
      <trkpt lat="47.22847" lon="6.04047">
        <ele>242.4</ele>
        <time>2019-06-06T08:04:16Z</time>
      </trkpt>
      <trkpt lat="47.2284" lon="6.04036">
        <ele>242.6</ele>
        <time>2019-06-06T08:04:25Z</time>
      </trkpt>
      <trkpt lat="47.22835" lon="6.04024">
        <ele>242.9</ele>
        <time>2019-06-06T08:04:31Z</time>
      </trkpt>
      <trkpt lat="47.22828" lon="6.04013">
        <ele>243.2</ele>
        <time>2019-06-06T08:04:37Z</time>
      </trkpt>
      <trkpt lat="47.22823" lon="6.04001">
        <ele>243.5</ele>
        <time>2019-06-06T08:04:46Z</time>
      </trkpt>
      <trkpt lat="47.22817" lon="6.0399">
        <ele>244.1</ele>
        <time>2019-06-06T08:04:58Z</time>
      </trkpt>
      <trkpt lat="47.22809" lon="6.03982">
        <ele>245.6</ele>
        <time>2019-06-06T08:06:19Z</time>
      </trkpt>
      <trkpt lat="47.22814" lon="6.03994">
        <ele>245.5</ele>
        <time>2019-06-06T08:07:37Z</time>
      </trkpt>
      <trkpt lat="47.22821" lon="6.04004">
        <ele>245</ele>
        <time>2019-06-06T08:08:16Z</time>
      </trkpt>
      <trkpt lat="47.22824" lon="6.04017">
        <ele>244.9</ele>
        <time>2019-06-06T08:08:28Z</time>
      </trkpt>
      <trkpt lat="47.22828" lon="6.04031">
        <ele>244.5</ele>
        <time>2019-06-06T08:08:37Z</time>
      </trkpt>
      <trkpt lat="47.22835" lon="6.04043">
        <ele>244.2</ele>
        <time>2019-06-06T08:08:44Z</time>
      </trkpt>
      <trkpt lat="47.22841" lon="6.04056">
        <ele>244.1</ele>
        <time>2019-06-06T08:08:50Z</time>
      </trkpt>
      <trkpt lat="47.22848" lon="6.04065">
        <ele>243.7</ele>
        <time>2019-06-06T08:08:56Z</time>
      </trkpt>
      <trkpt lat="47.22854" lon="6.04076">
        <ele>243.5</ele>
        <time>2019-06-06T08:09:04Z</time>
      </trkpt>
      <trkpt lat="47.22859" lon="6.04087">
        <ele>242.6</ele>
        <time>2019-06-06T08:09:17Z</time>
      </trkpt>
      <trkpt lat="47.22864" lon="6.04101">
        <ele>242.2</ele>
        <time>2019-06-06T08:09:27Z</time>
      </trkpt>
      <trkpt lat="47.22869" lon="6.04113">
        <ele>242.2</ele>
        <time>2019-06-06T08:09:35Z</time>
      </trkpt>
      <trkpt lat="47.22875" lon="6.04125">
        <ele>242.2</ele>
        <time>2019-06-06T08:09:43Z</time>
      </trkpt>
      <trkpt lat="47.22882" lon="6.04136">
        <ele>242.1</ele>
        <time>2019-06-06T08:09:52Z</time>
      </trkpt>
      <trkpt lat="47.22885" lon="6.04149">
        <ele>242.1</ele>
        <time>2019-06-06T08:10:02Z</time>
      </trkpt>
      <trkpt lat="47.22889" lon="6.04161">
        <ele>242.1</ele>
        <time>2019-06-06T08:10:13Z</time>
      </trkpt>
      <trkpt lat="47.22894" lon="6.04173">
        <ele>242.1</ele>
        <time>2019-06-06T08:10:22Z</time>
      </trkpt>
      <trkpt lat="47.229" lon="6.04183">
        <ele>242.1</ele>
        <time>2019-06-06T08:10:29Z</time>
      </trkpt>
      <trkpt lat="47.22905" lon="6.04195">
        <ele>242.2</ele>
        <time>2019-06-06T08:10:38Z</time>
      </trkpt>
      <trkpt lat="47.22908" lon="6.04207">
        <ele>242.4</ele>
        <time>2019-06-06T08:10:46Z</time>
      </trkpt>
      <trkpt lat="47.22917" lon="6.04208">
        <ele>242.8</ele>
        <time>2019-06-06T08:11:05Z</time>
      </trkpt>
      <trkpt lat="47.22925" lon="6.04199">
        <ele>243.2</ele>
        <time>2019-06-06T08:11:14Z</time>
      </trkpt>
      <trkpt lat="47.22931" lon="6.04189">
        <ele>243.8</ele>
        <time>2019-06-06T08:11:24Z</time>
      </trkpt>
      <trkpt lat="47.22937" lon="6.04178">
        <ele>246.5</ele>
        <time>2019-06-06T08:14:21Z</time>
      </trkpt>
      <trkpt lat="47.22941" lon="6.04165">
        <ele>246.7</ele>
        <time>2019-06-06T08:14:30Z</time>
      </trkpt>
      <trkpt lat="47.22945" lon="6.04152">
        <ele>247.3</ele>
        <time>2019-06-06T08:14:41Z</time>
      </trkpt>
      <trkpt lat="47.22951" lon="6.04141">
        <ele>248</ele>
        <time>2019-06-06T08:14:52Z</time>
      </trkpt>
      <trkpt lat="47.22958" lon="6.04131">
        <ele>248.9</ele>
        <time>2019-06-06T08:15:02Z</time>
      </trkpt>
      <trkpt lat="47.22967" lon="6.04124">
        <ele>250.1</ele>
        <time>2019-06-06T08:15:12Z</time>
      </trkpt>
      <trkpt lat="47.22975" lon="6.04116">
        <ele>251.2</ele>
        <time>2019-06-06T08:15:22Z</time>
      </trkpt>
      <trkpt lat="47.22983" lon="6.04109">
        <ele>252</ele>
        <time>2019-06-06T08:15:29Z</time>
      </trkpt>
      <trkpt lat="47.22992" lon="6.04103">
        <ele>252.6</ele>
        <time>2019-06-06T08:15:37Z</time>
      </trkpt>
      <trkpt lat="47.23" lon="6.04096">
        <ele>253.1</ele>
        <time>2019-06-06T08:15:45Z</time>
      </trkpt>
      <trkpt lat="47.23009" lon="6.04091">
        <ele>253.5</ele>
        <time>2019-06-06T08:15:53Z</time>
      </trkpt>
      <trkpt lat="47.23018" lon="6.04088">
        <ele>253.7</ele>
        <time>2019-06-06T08:16:00Z</time>
      </trkpt>
      <trkpt lat="47.23026" lon="6.04077">
        <ele>254</ele>
        <time>2019-06-06T08:16:08Z</time>
      </trkpt>
      <trkpt lat="47.23033" lon="6.04069">
        <ele>254.5</ele>
        <time>2019-06-06T08:16:17Z</time>
      </trkpt>
      <trkpt lat="47.23041" lon="6.04061">
        <ele>254.9</ele>
        <time>2019-06-06T08:16:25Z</time>
      </trkpt>
      <trkpt lat="47.23049" lon="6.04051">
        <ele>255.3</ele>
        <time>2019-06-06T08:16:33Z</time>
      </trkpt>
      <trkpt lat="47.23056" lon="6.04044">
        <ele>255.9</ele>
        <time>2019-06-06T08:16:40Z</time>
      </trkpt>
      <trkpt lat="47.23065" lon="6.04038">
        <ele>256.5</ele>
        <time>2019-06-06T08:16:48Z</time>
      </trkpt>
      <trkpt lat="47.23074" lon="6.04034">
        <ele>257.2</ele>
        <time>2019-06-06T08:16:57Z</time>
      </trkpt>
      <trkpt lat="47.23083" lon="6.04029">
        <ele>258.1</ele>
        <time>2019-06-06T08:17:07Z</time>
      </trkpt>
      <trkpt lat="47.23092" lon="6.04024">
        <ele>259.2</ele>
        <time>2019-06-06T08:17:17Z</time>
      </trkpt>
      <trkpt lat="47.23102" lon="6.04021">
        <ele>260.1</ele>
        <time>2019-06-06T08:17:26Z</time>
      </trkpt>
      <trkpt lat="47.23111" lon="6.0402">
        <ele>260.9</ele>
        <time>2019-06-06T08:17:35Z</time>
      </trkpt>
      <trkpt lat="47.23121" lon="6.04019">
        <ele>262.1</ele>
        <time>2019-06-06T08:17:47Z</time>
      </trkpt>
      <trkpt lat="47.23129" lon="6.04011">
        <ele>263.6</ele>
        <time>2019-06-06T08:17:58Z</time>
      </trkpt>
      <trkpt lat="47.23136" lon="6.04002">
        <ele>264.8</ele>
        <time>2019-06-06T08:18:07Z</time>
      </trkpt>
      <trkpt lat="47.23144" lon="6.03997">
        <ele>265.6</ele>
        <time>2019-06-06T08:18:15Z</time>
      </trkpt>
      <trkpt lat="47.23153" lon="6.03993">
        <ele>266.4</ele>
        <time>2019-06-06T08:18:23Z</time>
      </trkpt>
      <trkpt lat="47.23163" lon="6.03988">
        <ele>267.1</ele>
        <time>2019-06-06T08:18:32Z</time>
      </trkpt>
      <trkpt lat="47.23173" lon="6.03984">
        <ele>267.8</ele>
        <time>2019-06-06T08:18:43Z</time>
      </trkpt>
      <trkpt lat="47.23181" lon="6.03978">
        <ele>268.3</ele>
        <time>2019-06-06T08:18:50Z</time>
      </trkpt>
      <trkpt lat="47.2319" lon="6.03971">
        <ele>268.9</ele>
        <time>2019-06-06T08:18:59Z</time>
      </trkpt>
      <trkpt lat="47.23199" lon="6.03964">
        <ele>269.8</ele>
        <time>2019-06-06T08:19:07Z</time>
      </trkpt>
      <trkpt lat="47.23207" lon="6.03956">
        <ele>270.4</ele>
        <time>2019-06-06T08:19:16Z</time>
      </trkpt>
      <trkpt lat="47.23215" lon="6.03949">
        <ele>271.7</ele>
        <time>2019-06-06T08:19:27Z</time>
      </trkpt>
      <trkpt lat="47.23224" lon="6.03946">
        <ele>273</ele>
        <time>2019-06-06T08:19:38Z</time>
      </trkpt>
      <trkpt lat="47.23233" lon="6.03941">
        <ele>274</ele>
        <time>2019-06-06T08:19:49Z</time>
      </trkpt>
      <trkpt lat="47.2324" lon="6.03949">
        <ele>278</ele>
        <time>2019-06-06T08:20:22Z</time>
      </trkpt>
      <trkpt lat="47.23246" lon="6.0396">
        <ele>284.3</ele>
        <time>2019-06-06T08:20:54Z</time>
      </trkpt>
      <trkpt lat="47.23239" lon="6.0397">
        <ele>290.8</ele>
        <time>2019-06-06T08:21:32Z</time>
      </trkpt>
      <trkpt lat="47.23237" lon="6.03983">
        <ele>292.8</ele>
        <time>2019-06-06T08:21:47Z</time>
      </trkpt>
      <trkpt lat="47.23231" lon="6.03993">
        <ele>295</ele>
        <time>2019-06-06T08:22:11Z</time>
      </trkpt>
      <trkpt lat="47.23227" lon="6.04006">
        <ele>296.6</ele>
        <time>2019-06-06T08:22:29Z</time>
      </trkpt>
      <trkpt lat="47.23221" lon="6.04017">
        <ele>298.6</ele>
        <time>2019-06-06T08:22:47Z</time>
      </trkpt>
      <trkpt lat="47.23219" lon="6.0403">
        <ele>301.9</ele>
        <time>2019-06-06T08:23:28Z</time>
      </trkpt>
      <trkpt lat="47.23221" lon="6.04043">
        <ele>305.5</ele>
        <time>2019-06-06T08:24:31Z</time>
      </trkpt>
      <trkpt lat="47.23225" lon="6.04055">
        <ele>311.1</ele>
        <time>2019-06-06T08:25:10Z</time>
      </trkpt>
      <trkpt lat="47.2323" lon="6.04067">
        <ele>317</ele>
        <time>2019-06-06T08:25:41Z</time>
      </trkpt>
      <trkpt lat="47.23232" lon="6.0408">
        <ele>323.3</ele>
        <time>2019-06-06T08:26:18Z</time>
      </trkpt>
      <trkpt lat="47.23241" lon="6.04076">
        <ele>326.3</ele>
        <time>2019-06-06T08:26:39Z</time>
      </trkpt>
      <trkpt lat="47.2325" lon="6.04072">
        <ele>328.8</ele>
        <time>2019-06-06T08:26:58Z</time>
      </trkpt>
      <trkpt lat="47.23259" lon="6.04071">
        <ele>330.1</ele>
        <time>2019-06-06T08:27:19Z</time>
      </trkpt>
      <trkpt lat="47.23264" lon="6.04082">
        <ele>336.6</ele>
        <time>2019-06-06T08:28:11Z</time>
      </trkpt>
      <trkpt lat="47.23261" lon="6.04095">
        <ele>340.3</ele>
        <time>2019-06-06T08:30:05Z</time>
      </trkpt>
      <trkpt lat="47.23256" lon="6.04107">
        <ele>340.7</ele>
        <time>2019-06-06T08:30:22Z</time>
      </trkpt>
      <trkpt lat="47.23254" lon="6.0412">
        <ele>341.9</ele>
        <time>2019-06-06T08:30:37Z</time>
      </trkpt>
      <trkpt lat="47.2326" lon="6.0413">
        <ele>345.3</ele>
        <time>2019-06-06T08:31:01Z</time>
      </trkpt>
      <trkpt lat="47.23269" lon="6.04128">
        <ele>347.3</ele>
        <time>2019-06-06T08:31:14Z</time>
      </trkpt>
      <trkpt lat="47.23278" lon="6.04131">
        <ele>348.9</ele>
        <time>2019-06-06T08:31:29Z</time>
      </trkpt>
      <trkpt lat="47.23284" lon="6.04141">
        <ele>349.7</ele>
        <time>2019-06-06T08:31:40Z</time>
      </trkpt>
      <trkpt lat="47.23289" lon="6.04153">
        <ele>350.7</ele>
        <time>2019-06-06T08:31:55Z</time>
      </trkpt>
      <trkpt lat="47.23296" lon="6.04161">
        <ele>351.8</ele>
        <time>2019-06-06T08:32:28Z</time>
      </trkpt>
      <trkpt lat="47.23293" lon="6.04148">
        <ele>352.2</ele>
        <time>2019-06-06T08:33:40Z</time>
      </trkpt>
      <trkpt lat="47.23289" lon="6.04161">
        <ele>353.1</ele>
        <time>2019-06-06T08:35:13Z</time>
      </trkpt>
      <trkpt lat="47.23281" lon="6.04168">
        <ele>354.4</ele>
        <time>2019-06-06T08:35:27Z</time>
      </trkpt>
      <trkpt lat="47.23276" lon="6.0418">
        <ele>355.7</ele>
        <time>2019-06-06T08:35:39Z</time>
      </trkpt>
      <trkpt lat="47.23272" lon="6.04192">
        <ele>356.9</ele>
        <time>2019-06-06T08:35:50Z</time>
      </trkpt>
      <trkpt lat="47.23268" lon="6.04204">
        <ele>357.7</ele>
        <time>2019-06-06T08:35:58Z</time>
      </trkpt>
      <trkpt lat="47.23264" lon="6.04218">
        <ele>358.5</ele>
        <time>2019-06-06T08:36:07Z</time>
      </trkpt>
      <trkpt lat="47.23261" lon="6.04232">
        <ele>359.5</ele>
        <time>2019-06-06T08:36:16Z</time>
      </trkpt>
      <trkpt lat="47.23258" lon="6.04245">
        <ele>360.6</ele>
        <time>2019-06-06T08:36:25Z</time>
      </trkpt>
      <trkpt lat="47.23256" lon="6.04258">
        <ele>361.4</ele>
        <time>2019-06-06T08:36:34Z</time>
      </trkpt>
      <trkpt lat="47.23256" lon="6.04272">
        <ele>361.9</ele>
        <time>2019-06-06T08:36:42Z</time>
      </trkpt>
      <trkpt lat="47.23255" lon="6.04285">
        <ele>362</ele>
        <time>2019-06-06T08:36:49Z</time>
      </trkpt>
      <trkpt lat="47.23254" lon="6.04299">
        <ele>362.2</ele>
        <time>2019-06-06T08:36:57Z</time>
      </trkpt>
      <trkpt lat="47.23252" lon="6.04314">
        <ele>362</ele>
        <time>2019-06-06T08:37:06Z</time>
      </trkpt>
      <trkpt lat="47.23252" lon="6.04328">
        <ele>361.9</ele>
        <time>2019-06-06T08:37:15Z</time>
      </trkpt>
      <trkpt lat="47.23252" lon="6.04342">
        <ele>361.6</ele>
        <time>2019-06-06T08:37:24Z</time>
      </trkpt>
      <trkpt lat="47.23251" lon="6.04355">
        <ele>361.1</ele>
        <time>2019-06-06T08:37:32Z</time>
      </trkpt>
      <trkpt lat="47.23251" lon="6.04369">
        <ele>360.7</ele>
        <time>2019-06-06T08:37:40Z</time>
      </trkpt>
      <trkpt lat="47.23252" lon="6.04383">
        <ele>360.2</ele>
        <time>2019-06-06T08:37:48Z</time>
      </trkpt>
      <trkpt lat="47.23251" lon="6.04397">
        <ele>359.6</ele>
        <time>2019-06-06T08:37:55Z</time>
      </trkpt>
      <trkpt lat="47.23252" lon="6.0441">
        <ele>359.1</ele>
        <time>2019-06-06T08:38:02Z</time>
      </trkpt>
      <trkpt lat="47.23254" lon="6.04426">
        <ele>358.4</ele>
        <time>2019-06-06T08:38:10Z</time>
      </trkpt>
      <trkpt lat="47.23256" lon="6.04439">
        <ele>357.9</ele>
        <time>2019-06-06T08:38:18Z</time>
      </trkpt>
      <trkpt lat="47.23258" lon="6.04452">
        <ele>357.4</ele>
        <time>2019-06-06T08:38:26Z</time>
      </trkpt>
      <trkpt lat="47.23262" lon="6.04464">
        <ele>357.1</ele>
        <time>2019-06-06T08:38:34Z</time>
      </trkpt>
      <trkpt lat="47.23267" lon="6.04477">
        <ele>356.7</ele>
        <time>2019-06-06T08:38:43Z</time>
      </trkpt>
      <trkpt lat="47.23273" lon="6.04488">
        <ele>356.4</ele>
        <time>2019-06-06T08:38:52Z</time>
      </trkpt>
      <trkpt lat="47.23279" lon="6.04498">
        <ele>356.3</ele>
        <time>2019-06-06T08:39:00Z</time>
      </trkpt>
      <trkpt lat="47.23285" lon="6.04508">
        <ele>356.5</ele>
        <time>2019-06-06T08:39:09Z</time>
      </trkpt>
      <trkpt lat="47.23293" lon="6.04516">
        <ele>357.1</ele>
        <time>2019-06-06T08:39:19Z</time>
      </trkpt>
      <trkpt lat="47.233" lon="6.04526">
        <ele>360.2</ele>
        <time>2019-06-06T08:40:30Z</time>
      </trkpt>
      <trkpt lat="47.23306" lon="6.04536">
        <ele>360.5</ele>
        <time>2019-06-06T08:40:41Z</time>
      </trkpt>
      <trkpt lat="47.2331" lon="6.04549">
        <ele>361.2</ele>
        <time>2019-06-06T08:41:29Z</time>
      </trkpt>
      <trkpt lat="47.23315" lon="6.04561">
        <ele>361.4</ele>
        <time>2019-06-06T08:41:40Z</time>
      </trkpt>
      <trkpt lat="47.2332" lon="6.04572">
        <ele>362</ele>
        <time>2019-06-06T08:41:53Z</time>
      </trkpt>
      <trkpt lat="47.23325" lon="6.04585">
        <ele>362.8</ele>
        <time>2019-06-06T08:42:05Z</time>
      </trkpt>
      <trkpt lat="47.23326" lon="6.04598">
        <ele>363.1</ele>
        <time>2019-06-06T08:42:14Z</time>
      </trkpt>
      <trkpt lat="47.23329" lon="6.04612">
        <ele>363.7</ele>
        <time>2019-06-06T08:42:25Z</time>
      </trkpt>
      <trkpt lat="47.2333" lon="6.04625">
        <ele>364.3</ele>
        <time>2019-06-06T08:42:35Z</time>
      </trkpt>
      <trkpt lat="47.23332" lon="6.04639">
        <ele>364.7</ele>
        <time>2019-06-06T08:42:44Z</time>
      </trkpt>
      <trkpt lat="47.23333" lon="6.04654">
        <ele>365</ele>
        <time>2019-06-06T08:42:53Z</time>
      </trkpt>
      <trkpt lat="47.23335" lon="6.04667">
        <ele>365.1</ele>
        <time>2019-06-06T08:43:03Z</time>
      </trkpt>
      <trkpt lat="47.23337" lon="6.04682">
        <ele>365.3</ele>
        <time>2019-06-06T08:43:12Z</time>
      </trkpt>
      <trkpt lat="47.23337" lon="6.04696">
        <ele>365.6</ele>
        <time>2019-06-06T08:43:20Z</time>
      </trkpt>
      <trkpt lat="47.23339" lon="6.0471">
        <ele>365.9</ele>
        <time>2019-06-06T08:43:28Z</time>
      </trkpt>
      <trkpt lat="47.23341" lon="6.04723">
        <ele>366.3</ele>
        <time>2019-06-06T08:43:36Z</time>
      </trkpt>
      <trkpt lat="47.23341" lon="6.04737">
        <ele>366.6</ele>
        <time>2019-06-06T08:43:46Z</time>
      </trkpt>
      <trkpt lat="47.23338" lon="6.0475">
        <ele>366.7</ele>
        <time>2019-06-06T08:43:54Z</time>
      </trkpt>
      <trkpt lat="47.23336" lon="6.04762">
        <ele>366.7</ele>
        <time>2019-06-06T08:44:02Z</time>
      </trkpt>
      <trkpt lat="47.23335" lon="6.04777">
        <ele>366.8</ele>
        <time>2019-06-06T08:44:11Z</time>
      </trkpt>
      <trkpt lat="47.23334" lon="6.04791">
        <ele>366.8</ele>
        <time>2019-06-06T08:44:21Z</time>
      </trkpt>
      <trkpt lat="47.23332" lon="6.04804">
        <ele>366.8</ele>
        <time>2019-06-06T08:44:29Z</time>
      </trkpt>
      <trkpt lat="47.2333" lon="6.04819">
        <ele>366.8</ele>
        <time>2019-06-06T08:44:37Z</time>
      </trkpt>
      <trkpt lat="47.2333" lon="6.04833">
        <ele>367</ele>
        <time>2019-06-06T08:44:45Z</time>
      </trkpt>
      <trkpt lat="47.23329" lon="6.04847">
        <ele>367.3</ele>
        <time>2019-06-06T08:44:53Z</time>
      </trkpt>
      <trkpt lat="47.23328" lon="6.0486">
        <ele>367.8</ele>
        <time>2019-06-06T08:45:01Z</time>
      </trkpt>
      <trkpt lat="47.23327" lon="6.04875">
        <ele>369.1</ele>
        <time>2019-06-06T08:45:19Z</time>
      </trkpt>
      <trkpt lat="47.23328" lon="6.04889">
        <ele>370</ele>
        <time>2019-06-06T08:45:29Z</time>
      </trkpt>
      <trkpt lat="47.23328" lon="6.04903">
        <ele>370.7</ele>
        <time>2019-06-06T08:45:39Z</time>
      </trkpt>
      <trkpt lat="47.23325" lon="6.04916">
        <ele>371.3</ele>
        <time>2019-06-06T08:45:49Z</time>
      </trkpt>
      <trkpt lat="47.23325" lon="6.04929">
        <ele>372.2</ele>
        <time>2019-06-06T08:45:57Z</time>
      </trkpt>
      <trkpt lat="47.23323" lon="6.04944">
        <ele>373.3</ele>
        <time>2019-06-06T08:46:08Z</time>
      </trkpt>
      <trkpt lat="47.23321" lon="6.04958">
        <ele>374.3</ele>
        <time>2019-06-06T08:46:18Z</time>
      </trkpt>
      <trkpt lat="47.23321" lon="6.04972">
        <ele>375.4</ele>
        <time>2019-06-06T08:46:27Z</time>
      </trkpt>
      <trkpt lat="47.23321" lon="6.04986">
        <ele>376.4</ele>
        <time>2019-06-06T08:46:37Z</time>
      </trkpt>
      <trkpt lat="47.23325" lon="6.04999">
        <ele>377.8</ele>
        <time>2019-06-06T08:46:47Z</time>
      </trkpt>
      <trkpt lat="47.23334" lon="6.05005">
        <ele>379.4</ele>
        <time>2019-06-06T08:46:59Z</time>
      </trkpt>
      <trkpt lat="47.23343" lon="6.05005">
        <ele>381.5</ele>
        <time>2019-06-06T08:47:11Z</time>
      </trkpt>
      <trkpt lat="47.23352" lon="6.05003">
        <ele>384.1</ele>
        <time>2019-06-06T08:47:29Z</time>
      </trkpt>
      <trkpt lat="47.23359" lon="6.05013">
        <ele>386.1</ele>
        <time>2019-06-06T08:47:40Z</time>
      </trkpt>
      <trkpt lat="47.23365" lon="6.05022">
        <ele>387.3</ele>
        <time>2019-06-06T08:47:51Z</time>
      </trkpt>
      <trkpt lat="47.23372" lon="6.05032">
        <ele>388.7</ele>
        <time>2019-06-06T08:48:02Z</time>
      </trkpt>
      <trkpt lat="47.23378" lon="6.05043">
        <ele>389.5</ele>
        <time>2019-06-06T08:48:11Z</time>
      </trkpt>
      <trkpt lat="47.23384" lon="6.05054">
        <ele>390.5</ele>
        <time>2019-06-06T08:48:21Z</time>
      </trkpt>
      <trkpt lat="47.23387" lon="6.05067">
        <ele>391.2</ele>
        <time>2019-06-06T08:48:30Z</time>
      </trkpt>
      <trkpt lat="47.23393" lon="6.05079">
        <ele>391.9</ele>
        <time>2019-06-06T08:48:39Z</time>
      </trkpt>
      <trkpt lat="47.23399" lon="6.05089">
        <ele>392.7</ele>
        <time>2019-06-06T08:48:48Z</time>
      </trkpt>
      <trkpt lat="47.23406" lon="6.05098">
        <ele>393.6</ele>
        <time>2019-06-06T08:48:58Z</time>
      </trkpt>
      <trkpt lat="47.23415" lon="6.05099">
        <ele>395.1</ele>
        <time>2019-06-06T08:49:32Z</time>
      </trkpt>
      <trkpt lat="47.23416" lon="6.05086">
        <ele>396</ele>
        <time>2019-06-06T08:50:16Z</time>
      </trkpt>
      <trkpt lat="47.23415" lon="6.05073">
        <ele>397.5</ele>
        <time>2019-06-06T08:52:05Z</time>
      </trkpt>
      <trkpt lat="47.23411" lon="6.05061">
        <ele>398.9</ele>
        <time>2019-06-06T08:53:13Z</time>
      </trkpt>
      <trkpt lat="47.23405" lon="6.0505">
        <ele>399.1</ele>
        <time>2019-06-06T08:53:22Z</time>
      </trkpt>
      <trkpt lat="47.234" lon="6.05039">
        <ele>399.2</ele>
        <time>2019-06-06T08:53:29Z</time>
      </trkpt>
      <trkpt lat="47.23398" lon="6.05025">
        <ele>399.5</ele>
        <time>2019-06-06T08:53:39Z</time>
      </trkpt>
      <trkpt lat="47.23403" lon="6.05014">
        <ele>400.2</ele>
        <time>2019-06-06T08:53:50Z</time>
      </trkpt>
      <trkpt lat="47.23411" lon="6.05005">
        <ele>401.6</ele>
        <time>2019-06-06T08:54:02Z</time>
      </trkpt>
      <trkpt lat="47.23415" lon="6.04992">
        <ele>403.2</ele>
        <time>2019-06-06T08:54:13Z</time>
      </trkpt>
      <trkpt lat="47.23418" lon="6.04979">
        <ele>404.7</ele>
        <time>2019-06-06T08:54:22Z</time>
      </trkpt>
      <trkpt lat="47.23418" lon="6.04966">
        <ele>405.8</ele>
        <time>2019-06-06T08:54:30Z</time>
      </trkpt>
      <trkpt lat="47.23418" lon="6.04952">
        <ele>407.2</ele>
        <time>2019-06-06T08:54:38Z</time>
      </trkpt>
      <trkpt lat="47.23416" lon="6.04937">
        <ele>408.2</ele>
        <time>2019-06-06T08:54:47Z</time>
      </trkpt>
      <trkpt lat="47.23416" lon="6.04923">
        <ele>409.1</ele>
        <time>2019-06-06T08:54:56Z</time>
      </trkpt>
      <trkpt lat="47.23418" lon="6.04909">
        <ele>409.9</ele>
        <time>2019-06-06T08:55:06Z</time>
      </trkpt>
      <trkpt lat="47.23419" lon="6.04895">
        <ele>410.7</ele>
        <time>2019-06-06T08:55:15Z</time>
      </trkpt>
      <trkpt lat="47.23422" lon="6.04882">
        <ele>411.3</ele>
        <time>2019-06-06T08:55:24Z</time>
      </trkpt>
      <trkpt lat="47.23425" lon="6.0487">
        <ele>412.1</ele>
        <time>2019-06-06T08:55:34Z</time>
      </trkpt>
      <trkpt lat="47.23427" lon="6.04856">
        <ele>415.3</ele>
        <time>2019-06-06T08:56:24Z</time>
      </trkpt>
      <trkpt lat="47.23434" lon="6.04848">
        <ele>416.4</ele>
        <time>2019-06-06T08:57:00Z</time>
      </trkpt>
      <trkpt lat="47.23444" lon="6.04846">
        <ele>417.8</ele>
        <time>2019-06-06T08:57:11Z</time>
      </trkpt>
      <trkpt lat="47.23453" lon="6.04846">
        <ele>419.2</ele>
        <time>2019-06-06T08:57:21Z</time>
      </trkpt>
      <trkpt lat="47.23461" lon="6.04853">
        <ele>420.8</ele>
        <time>2019-06-06T08:57:32Z</time>
      </trkpt>
      <trkpt lat="47.2347" lon="6.04856">
        <ele>422.1</ele>
        <time>2019-06-06T08:57:42Z</time>
      </trkpt>
      <trkpt lat="47.23478" lon="6.04863">
        <ele>423.5</ele>
        <time>2019-06-06T08:57:52Z</time>
      </trkpt>
      <trkpt lat="47.23486" lon="6.0487">
        <ele>425.3</ele>
        <time>2019-06-06T08:58:06Z</time>
      </trkpt>
      <trkpt lat="47.23496" lon="6.04875">
        <ele>427</ele>
        <time>2019-06-06T08:58:17Z</time>
      </trkpt>
      <trkpt lat="47.23506" lon="6.04875">
        <ele>428.7</ele>
        <time>2019-06-06T08:58:27Z</time>
      </trkpt>
      <trkpt lat="47.23515" lon="6.04877">
        <ele>429.8</ele>
        <time>2019-06-06T08:58:35Z</time>
      </trkpt>
      <trkpt lat="47.23524" lon="6.0488">
        <ele>431.5</ele>
        <time>2019-06-06T08:58:44Z</time>
      </trkpt>
      <trkpt lat="47.23534" lon="6.04881">
        <ele>433.3</ele>
        <time>2019-06-06T08:58:54Z</time>
      </trkpt>
      <trkpt lat="47.23544" lon="6.04883">
        <ele>434.8</ele>
        <time>2019-06-06T08:59:03Z</time>
      </trkpt>
      <trkpt lat="47.23554" lon="6.04883">
        <ele>436</ele>
        <time>2019-06-06T08:59:12Z</time>
      </trkpt>
      <trkpt lat="47.23563" lon="6.04879">
        <ele>437.3</ele>
        <time>2019-06-06T08:59:20Z</time>
      </trkpt>
      <trkpt lat="47.23572" lon="6.04872">
        <ele>438.8</ele>
        <time>2019-06-06T08:59:30Z</time>
      </trkpt>
      <trkpt lat="47.23574" lon="6.04857">
        <ele>439.7</ele>
        <time>2019-06-06T09:01:15Z</time>
      </trkpt>
      <trkpt lat="47.23576" lon="6.04843">
        <ele>439.8</ele>
        <time>2019-06-06T09:01:23Z</time>
      </trkpt>
      <trkpt lat="47.23577" lon="6.04828">
        <ele>439.8</ele>
        <time>2019-06-06T09:01:31Z</time>
      </trkpt>
      <trkpt lat="47.23577" lon="6.04814">
        <ele>440.1</ele>
        <time>2019-06-06T09:01:39Z</time>
      </trkpt>
      <trkpt lat="47.23576" lon="6.048">
        <ele>440.4</ele>
        <time>2019-06-06T09:01:47Z</time>
      </trkpt>
      <trkpt lat="47.23572" lon="6.04787">
        <ele>440.6</ele>
        <time>2019-06-06T09:01:54Z</time>
      </trkpt>
      <trkpt lat="47.2357" lon="6.04773">
        <ele>440.7</ele>
        <time>2019-06-06T09:02:02Z</time>
      </trkpt>
      <trkpt lat="47.23569" lon="6.0476">
        <ele>440.9</ele>
        <time>2019-06-06T09:02:10Z</time>
      </trkpt>
      <trkpt lat="47.23569" lon="6.04745">
        <ele>441.5</ele>
        <time>2019-06-06T09:02:19Z</time>
      </trkpt>
      <trkpt lat="47.2357" lon="6.04731">
        <ele>442.2</ele>
        <time>2019-06-06T09:02:27Z</time>
      </trkpt>
      <trkpt lat="47.2357" lon="6.04718">
        <ele>442.8</ele>
        <time>2019-06-06T09:02:35Z</time>
      </trkpt>
      <trkpt lat="47.2357" lon="6.04703">
        <ele>443.7</ele>
        <time>2019-06-06T09:02:44Z</time>
      </trkpt>
      <trkpt lat="47.23569" lon="6.04689">
        <ele>444.8</ele>
        <time>2019-06-06T09:02:53Z</time>
      </trkpt>
      <trkpt lat="47.23568" lon="6.04675">
        <ele>445.7</ele>
        <time>2019-06-06T09:03:02Z</time>
      </trkpt>
      <trkpt lat="47.23565" lon="6.04662">
        <ele>446.8</ele>
        <time>2019-06-06T09:03:10Z</time>
      </trkpt>
      <trkpt lat="47.23561" lon="6.04649">
        <ele>447.6</ele>
        <time>2019-06-06T09:03:18Z</time>
      </trkpt>
      <trkpt lat="47.23558" lon="6.04637">
        <ele>448.3</ele>
        <time>2019-06-06T09:03:26Z</time>
      </trkpt>
      <trkpt lat="47.23554" lon="6.04624">
        <ele>449.1</ele>
        <time>2019-06-06T09:03:35Z</time>
      </trkpt>
      <trkpt lat="47.23551" lon="6.04611">
        <ele>449.5</ele>
        <time>2019-06-06T09:03:43Z</time>
      </trkpt>
      <trkpt lat="47.23549" lon="6.04596">
        <ele>450.1</ele>
        <time>2019-06-06T09:03:51Z</time>
      </trkpt>
      <trkpt lat="47.23545" lon="6.04583">
        <ele>450.9</ele>
        <time>2019-06-06T09:04:00Z</time>
      </trkpt>
      <trkpt lat="47.23543" lon="6.0457">
        <ele>451.8</ele>
        <time>2019-06-06T09:04:10Z</time>
      </trkpt>
      <trkpt lat="47.23544" lon="6.04556">
        <ele>452.6</ele>
        <time>2019-06-06T09:04:19Z</time>
      </trkpt>
      <trkpt lat="47.23549" lon="6.04544">
        <ele>453.3</ele>
        <time>2019-06-06T09:04:29Z</time>
      </trkpt>
      <trkpt lat="47.23553" lon="6.04531">
        <ele>453.4</ele>
        <time>2019-06-06T09:04:38Z</time>
      </trkpt>
      <trkpt lat="47.23556" lon="6.04518">
        <ele>453.1</ele>
        <time>2019-06-06T09:04:46Z</time>
      </trkpt>
      <trkpt lat="47.23564" lon="6.0451">
        <ele>453.2</ele>
        <time>2019-06-06T09:04:58Z</time>
      </trkpt>
      <trkpt lat="47.23573" lon="6.04505">
        <ele>453.2</ele>
        <time>2019-06-06T09:05:06Z</time>
      </trkpt>
      <trkpt lat="47.23583" lon="6.04501">
        <ele>453.1</ele>
        <time>2019-06-06T09:05:15Z</time>
      </trkpt>
      <trkpt lat="47.23592" lon="6.04502">
        <ele>452.7</ele>
        <time>2019-06-06T09:05:23Z</time>
      </trkpt>
      <trkpt lat="47.23601" lon="6.04504">
        <ele>452.6</ele>
        <time>2019-06-06T09:05:29Z</time>
      </trkpt>
      <trkpt lat="47.2361" lon="6.04501">
        <ele>452.4</ele>
        <time>2019-06-06T09:05:39Z</time>
      </trkpt>
      <trkpt lat="47.2362" lon="6.04497">
        <ele>452.1</ele>
        <time>2019-06-06T09:05:50Z</time>
      </trkpt>
      <trkpt lat="47.23626" lon="6.04486">
        <ele>452</ele>
        <time>2019-06-06T09:05:58Z</time>
      </trkpt>
      <trkpt lat="47.23626" lon="6.04473">
        <ele>451.7</ele>
        <time>2019-06-06T09:06:07Z</time>
      </trkpt>
      <trkpt lat="47.23622" lon="6.04461">
        <ele>451.2</ele>
        <time>2019-06-06T09:06:15Z</time>
      </trkpt>
      <trkpt lat="47.23619" lon="6.04447">
        <ele>450.7</ele>
        <time>2019-06-06T09:06:24Z</time>
      </trkpt>
      <trkpt lat="47.23616" lon="6.04433">
        <ele>450.1</ele>
        <time>2019-06-06T09:06:32Z</time>
      </trkpt>
      <trkpt lat="47.23611" lon="6.04422">
        <ele>449.6</ele>
        <time>2019-06-06T09:06:41Z</time>
      </trkpt>
      <trkpt lat="47.23609" lon="6.04408">
        <ele>449.4</ele>
        <time>2019-06-06T09:06:50Z</time>
      </trkpt>
      <trkpt lat="47.23609" lon="6.04393">
        <ele>449.2</ele>
        <time>2019-06-06T09:06:57Z</time>
      </trkpt>
      <trkpt lat="47.23603" lon="6.04383">
        <ele>449</ele>
        <time>2019-06-06T09:07:05Z</time>
      </trkpt>
      <trkpt lat="47.23596" lon="6.04375">
        <ele>448.5</ele>
        <time>2019-06-06T09:07:13Z</time>
      </trkpt>
      <trkpt lat="47.23593" lon="6.04362">
        <ele>447.9</ele>
        <time>2019-06-06T09:07:25Z</time>
      </trkpt>
      <trkpt lat="47.23595" lon="6.04348">
        <ele>447.1</ele>
        <time>2019-06-06T09:07:38Z</time>
      </trkpt>
      <trkpt lat="47.23597" lon="6.04335">
        <ele>446.6</ele>
        <time>2019-06-06T09:07:49Z</time>
      </trkpt>
      <trkpt lat="47.23596" lon="6.04321">
        <ele>446.5</ele>
        <time>2019-06-06T09:08:01Z</time>
      </trkpt>
      <trkpt lat="47.23592" lon="6.04309">
        <ele>445.8</ele>
        <time>2019-06-06T09:08:23Z</time>
      </trkpt>
      <trkpt lat="47.23588" lon="6.04295">
        <ele>444.9</ele>
        <time>2019-06-06T09:08:33Z</time>
      </trkpt>
      <trkpt lat="47.23588" lon="6.04281">
        <ele>444.3</ele>
        <time>2019-06-06T09:08:40Z</time>
      </trkpt>
      <trkpt lat="47.2359" lon="6.04268">
        <ele>443.5</ele>
        <time>2019-06-06T09:08:50Z</time>
      </trkpt>
      <trkpt lat="47.23593" lon="6.04254">
        <ele>443.2</ele>
        <time>2019-06-06T09:08:57Z</time>
      </trkpt>
      <trkpt lat="47.23594" lon="6.0424">
        <ele>442.5</ele>
        <time>2019-06-06T09:09:04Z</time>
      </trkpt>
      <trkpt lat="47.23599" lon="6.04228">
        <ele>441.8</ele>
        <time>2019-06-06T09:09:17Z</time>
      </trkpt>
      <trkpt lat="47.23605" lon="6.04238">
        <ele>440.1</ele>
        <time>2019-06-06T09:10:04Z</time>
      </trkpt>
      <trkpt lat="47.23615" lon="6.04239">
        <ele>437.9</ele>
        <time>2019-06-06T09:10:15Z</time>
      </trkpt>
      <trkpt lat="47.23622" lon="6.04229">
        <ele>436.7</ele>
        <time>2019-06-06T09:10:22Z</time>
      </trkpt>
      <trkpt lat="47.23626" lon="6.04217">
        <ele>435.1</ele>
        <time>2019-06-06T09:10:30Z</time>
      </trkpt>
      <trkpt lat="47.2363" lon="6.04205">
        <ele>434</ele>
        <time>2019-06-06T09:10:36Z</time>
      </trkpt>
      <trkpt lat="47.23635" lon="6.04192">
        <ele>432.9</ele>
        <time>2019-06-06T09:10:42Z</time>
      </trkpt>
      <trkpt lat="47.23634" lon="6.04178">
        <ele>431.7</ele>
        <time>2019-06-06T09:10:49Z</time>
      </trkpt>
      <trkpt lat="47.23629" lon="6.04168">
        <ele>430.6</ele>
        <time>2019-06-06T09:11:01Z</time>
      </trkpt>
      <trkpt lat="47.2362" lon="6.04158">
        <ele>428.8</ele>
        <time>2019-06-06T09:12:04Z</time>
      </trkpt>
      <trkpt lat="47.23612" lon="6.04154">
        <ele>428.9</ele>
        <time>2019-06-06T09:12:13Z</time>
      </trkpt>
      <trkpt lat="47.23604" lon="6.04147">
        <ele>429.6</ele>
        <time>2019-06-06T09:12:23Z</time>
      </trkpt>
      <trkpt lat="47.23594" lon="6.04145">
        <ele>430.2</ele>
        <time>2019-06-06T09:12:32Z</time>
      </trkpt>
      <trkpt lat="47.23585" lon="6.04145">
        <ele>431.1</ele>
        <time>2019-06-06T09:12:40Z</time>
      </trkpt>
      <trkpt lat="47.23576" lon="6.04148">
        <ele>432</ele>
        <time>2019-06-06T09:12:47Z</time>
      </trkpt>
      <trkpt lat="47.23568" lon="6.04155">
        <ele>432.8</ele>
        <time>2019-06-06T09:12:55Z</time>
      </trkpt>
      <trkpt lat="47.23561" lon="6.04163">
        <ele>433.5</ele>
        <time>2019-06-06T09:13:04Z</time>
      </trkpt>
      <trkpt lat="47.23551" lon="6.04167">
        <ele>434.3</ele>
        <time>2019-06-06T09:13:14Z</time>
      </trkpt>
      <trkpt lat="47.23542" lon="6.04171">
        <ele>435.2</ele>
        <time>2019-06-06T09:13:22Z</time>
      </trkpt>
      <trkpt lat="47.23533" lon="6.04175">
        <ele>436</ele>
        <time>2019-06-06T09:13:29Z</time>
      </trkpt>
      <trkpt lat="47.23525" lon="6.04181">
        <ele>437</ele>
        <time>2019-06-06T09:13:38Z</time>
      </trkpt>
      <trkpt lat="47.23517" lon="6.04188">
        <ele>438.1</ele>
        <time>2019-06-06T09:13:46Z</time>
      </trkpt>
      <trkpt lat="47.23508" lon="6.04195">
        <ele>438.9</ele>
        <time>2019-06-06T09:13:55Z</time>
      </trkpt>
      <trkpt lat="47.235" lon="6.04203">
        <ele>439.7</ele>
        <time>2019-06-06T09:14:04Z</time>
      </trkpt>
      <trkpt lat="47.2349" lon="6.04207">
        <ele>440.8</ele>
        <time>2019-06-06T09:14:14Z</time>
      </trkpt>
      <trkpt lat="47.23483" lon="6.04217">
        <ele>442.2</ele>
        <time>2019-06-06T09:14:30Z</time>
      </trkpt>
      <trkpt lat="47.23474" lon="6.04216">
        <ele>442.8</ele>
        <time>2019-06-06T09:14:47Z</time>
      </trkpt>
      <trkpt lat="47.2347" lon="6.04229">
        <ele>443.3</ele>
        <time>2019-06-06T09:15:40Z</time>
      </trkpt>
      <trkpt lat="47.23476" lon="6.04219">
        <ele>443.3</ele>
        <time>2019-06-06T09:16:13Z</time>
      </trkpt>
    </trkseg>
  </trk>
</gpx>